createdAt,value
2023-04-19T05:31:09.505Z,9.10
2023-04-19T05:34:11.226Z,8.80
2023-04-19T05:37:13.095Z,8.80
2023-04-19T05:40:15.101Z,8.70
2023-04-19T05:43:17.374Z,8.80
2023-04-19T05:46:19.388Z,8.80
2023-04-19T05:49:21.389Z,8.70
2023-04-19T05:52:23.260Z,8.70
2023-04-19T05:55:25.853Z,8.70
2023-04-19T05:58:28.047Z,8.80
2023-04-19T06:01:30.532Z,8.80
2023-04-19T06:04:32.664Z,8.90
2023-04-19T06:07:40.107Z,9.20
2023-04-19T06:10:54.524Z,9.50
2023-04-19T06:50:02.191Z,10.80
2023-04-19T06:53:04.991Z,11.20
2023-04-19T06:56:07.428Z,11.50
2023-04-19T06:59:09.409Z,11.50
2023-04-19T07:02:11.469Z,11.40
2023-04-19T07:05:13.559Z,11.20
2023-04-19T07:08:16.758Z,11.30
2023-04-19T07:11:20.325Z,11.70
2023-04-19T07:14:24.491Z,12.00
2023-04-19T07:17:26.636Z,12.00
2023-04-19T07:20:29.472Z,11.90
2023-04-19T07:23:31.970Z,11.90
2023-04-19T07:26:34.903Z,12.10
2023-04-19T07:29:37.660Z,12.50
2023-04-19T07:32:39.989Z,13.60
2023-04-19T07:35:42.216Z,14.00
2023-04-19T07:38:44.459Z,15.10
2023-04-19T07:41:46.560Z,15.90
2023-04-19T07:44:49.066Z,15.10
2023-04-19T07:47:51.010Z,15.20
2023-04-19T07:50:53.715Z,15.30
2023-04-19T07:53:56.256Z,14.50
2023-04-19T07:56:59.427Z,13.90
2023-04-19T08:00:02.294Z,13.50
2023-04-19T08:03:04.905Z,14.10
2023-04-19T08:06:09.158Z,14.10
2023-04-19T08:09:11.416Z,13.90
2023-04-19T08:12:26.299Z,13.70
2023-04-19T08:18:41.511Z,14.30
2023-04-19T08:21:43.261Z,15.30
2023-04-19T08:24:46.786Z,16.80
2023-04-19T08:27:50.318Z,18.50
2023-04-19T08:30:52.562Z,18.80
2023-04-19T08:33:54.682Z,18.60
2023-04-19T08:37:03.876Z,18.80
2023-04-19T08:40:08.442Z,19.30
2023-04-19T08:43:10.540Z,18.70
2023-04-19T08:46:12.894Z,17.90
2023-04-19T08:49:16.078Z,16.40
2023-04-19T08:52:18.611Z,15.20
2023-04-19T08:55:20.774Z,14.20
2023-04-19T08:58:30.620Z,13.90
2023-04-19T09:01:44.686Z,13.90
2023-04-19T09:04:48.111Z,13.30
2023-04-19T09:07:50.555Z,13.30
2023-04-19T09:10:57.947Z,13.70
2023-04-19T09:14:11.494Z,14.20
2023-04-19T09:17:17.704Z,14.30
2023-04-19T09:20:36.620Z,14.00
2023-04-19T09:23:48.750Z,13.90
2023-04-19T09:26:58.146Z,13.90
2023-04-19T09:30:02.201Z,13.90
2023-04-19T09:33:04.429Z,13.50
2023-04-19T09:36:07.924Z,13.20
2023-04-19T09:39:10.824Z,13.30
2023-04-19T09:42:12.821Z,13.50
2023-04-19T09:48:22.860Z,14.00
2023-04-19T09:51:41.018Z,14.10
2023-04-19T09:54:44.249Z,14.30
2023-04-19T09:57:46.340Z,14.80
2023-04-19T10:00:57.225Z,15.30
2023-04-19T10:04:20.577Z,15.00
2023-04-19T10:07:31.104Z,14.90
2023-04-19T10:10:41.692Z,14.50
2023-04-19T10:13:45.184Z,14.30
2023-04-19T10:16:47.350Z,14.20
2023-04-19T10:20:01.805Z,14.80
2023-04-19T10:23:07.015Z,14.60
2023-04-19T10:26:08.711Z,14.50
2023-04-19T10:29:12.355Z,14.30
2023-04-19T10:32:14.811Z,14.40
2023-04-19T10:35:37.632Z,14.10
2023-04-19T10:38:58.859Z,13.90
2023-04-19T10:42:00.626Z,13.80
2023-04-19T10:45:34.968Z,13.90
2023-04-19T10:48:39.381Z,13.70
2023-04-19T10:51:47.708Z,13.30
2023-04-19T10:54:56.505Z,13.10
2023-04-19T10:58:02.988Z,13.10
2023-04-19T11:01:53.278Z,13.10
2023-04-19T11:04:55.087Z,13.40
2023-04-19T11:07:57.839Z,13.30
2023-04-19T11:10:59.675Z,13.30
2023-04-19T11:14:03.892Z,13.30
2023-04-19T11:17:19.076Z,13.40
2023-04-19T11:20:23.716Z,13.30
2023-04-19T11:23:25.424Z,13.10
2023-04-19T11:26:27.272Z,12.80
2023-04-19T11:29:28.910Z,12.90
2023-04-19T11:32:30.840Z,13.10
2023-04-19T11:35:32.694Z,13.10
2023-04-19T11:38:35.210Z,12.80
2023-04-19T11:41:40.609Z,12.60
2023-04-19T11:44:55.094Z,12.60
2023-04-19T11:47:59.145Z,12.30
2023-04-19T11:51:01.674Z,12.10
2023-04-19T11:54:17.467Z,12.10
2023-04-19T11:57:46.144Z,12.10
2023-04-19T12:00:57.562Z,12.10
2023-04-19T12:04:07.159Z,12.00
2023-04-19T12:07:14.777Z,11.90
2023-04-19T12:10:18.192Z,11.60
2023-04-19T12:13:29.019Z,11.20
2023-04-19T12:16:32.678Z,10.90
2023-04-19T12:19:42.969Z,10.60
2023-04-19T12:22:45.001Z,10.30
2023-04-19T12:25:48.771Z,10.30
2023-04-19T12:28:50.790Z,10.40
2023-04-19T12:31:52.839Z,10.30
2023-04-19T12:34:54.953Z,10.10
2023-04-19T12:37:59.186Z,10.00
2023-04-19T12:41:01.783Z,10.10
2023-04-19T12:44:04.374Z,10.00
2023-04-19T12:47:06.682Z,10.00
2023-04-19T12:50:09.323Z,9.90
2023-04-19T12:53:11.075Z,9.60
2023-04-19T12:56:12.966Z,9.60
2023-04-19T12:59:15.698Z,9.70
2023-04-19T13:02:17.862Z,9.70
2023-04-19T13:05:20.509Z,9.60
2023-04-19T13:08:33.806Z,9.50
2023-04-19T13:11:39.110Z,9.30
2023-04-19T13:14:40.811Z,9.30
2023-04-19T13:17:42.580Z,9.40
2023-04-19T13:20:44.367Z,9.40
2023-04-19T13:23:46.211Z,9.40
2023-04-19T13:26:47.931Z,9.50
2023-04-19T13:29:49.629Z,9.40
2023-04-19T13:32:51.507Z,9.50
2023-04-19T13:35:53.462Z,9.60
2023-04-19T13:38:55.222Z,9.60
2023-04-19T13:41:56.951Z,9.60
2023-04-19T13:44:58.786Z,9.90
2023-04-19T13:48:00.630Z,10.10
2023-04-19T13:51:02.508Z,10.30
2023-04-19T13:54:04.270Z,10.10
2023-04-19T13:57:06.062Z,10.30
2023-04-19T14:00:08.619Z,10.40
2023-04-19T14:03:10.671Z,10.40
2023-04-19T14:06:12.400Z,10.50
2023-04-19T14:09:14.050Z,10.40
2023-04-19T14:12:15.914Z,10.20
2023-04-19T14:15:17.660Z,10.10
2023-04-19T14:18:19.280Z,10.30
2023-04-19T14:21:20.984Z,10.20
2023-04-19T14:24:22.796Z,10.00
2023-04-19T14:27:26.301Z,10.20
2023-04-19T14:30:29.343Z,10.20
2023-04-19T14:33:32.332Z,10.20
2023-04-19T14:36:34.291Z,10.20
2023-04-19T14:39:36.454Z,10.40
2023-04-19T14:42:38.302Z,10.60
2023-04-19T14:45:40.029Z,10.70
2023-04-19T14:48:42.510Z,10.70
2023-04-19T14:51:44.195Z,10.90
2023-04-19T14:54:46.050Z,11.20
2023-04-19T14:57:47.719Z,11.20
2023-04-19T15:00:49.390Z,11.50
2023-04-19T15:03:51.368Z,11.60
2023-04-19T15:06:53.677Z,11.80
2023-04-19T15:09:55.426Z,11.70
2023-04-19T15:12:57.920Z,11.50
2023-04-19T15:16:02.532Z,11.40
2023-04-19T15:19:07.552Z,11.40
2023-04-19T15:22:09.444Z,11.50
2023-04-19T15:25:11.508Z,11.50
2023-04-19T15:28:13.250Z,11.40
2023-04-19T15:31:15.052Z,11.50
2023-04-19T15:34:16.753Z,11.30
2023-04-19T15:37:18.458Z,11.20
2023-04-19T15:40:21.284Z,11.20
2023-04-19T15:43:23.984Z,11.20
2023-04-19T15:46:25.836Z,11.30
2023-04-19T15:49:27.512Z,11.40
2023-04-19T15:52:29.189Z,11.30
2023-04-19T15:55:31.684Z,11.20
2023-04-19T15:58:33.432Z,11.30
